Time,TemperatureF,DewpointF,PressureIn,WindDirection,WindDirectionDegrees,WindSpeedMPH,WindSpeedGustMPH,Humidity,HourlyPrecipIn,Conditions,Clouds,dailyrainin,SoftwareType,DateUTC
2013-01-22 00:00:00,19.2,0.4,29.38,NW,315,10.3,10.3,43,0.00,,,0.00,VWS V14.01,2013-01-22 05:00:00,
2013-01-22 00:01:00,19.2,0.4,29.38,West,270,12.1,12.1,43,0.00,,,0.00,VWS V14.01,2013-01-22 05:01:00,
2013-01-22 00:06:00,19.2,0.4,29.38,West,270,8.5,8.5,43,0.00,,,0.00,VWS V14.01,2013-01-22 05:06:00,
2013-01-22 00:11:00,19.0,0.2,29.38,WNW,292,8.1,8.1,43,0.00,,,0.00,VWS V14.01,2013-01-22 05:11:00,
2013-01-22 00:16:00,18.7,0.4,29.38,West,270,8.1,8.1,44,0.00,,,0.00,VWS V14.01,2013-01-22 05:16:00,
2013-01-22 00:21:00,18.7,-0.1,29.38,NW,315,18.1,18.1,43,0.00,,,0.00,VWS V14.01,2013-01-22 05:21:00,
2013-01-22 00:26:00,18.5,-0.3,29.38,WNW,292,12.5,12.5,43,0.00,,,0.00,VWS V14.01,2013-01-22 05:26:00,
2013-01-22 00:31:00,18.3,-0.4,29.38,West,270,21.0,21.0,43,0.00,,,0.00,VWS V14.01,2013-01-22 05:31:00,
2013-01-22 00:36:00,18.1,-0.6,29.38,WNW,292,8.7,8.7,43,0.00,,,0.00,VWS V14.01,2013-01-22 05:36:00,
2013-01-22 00:41:00,17.8,-0.9,29.38,West,270,10.5,10.5,43,0.00,,,0.00,VWS V14.01,2013-01-22 05:41:00,
2013-01-22 00:46:00,17.8,-0.4,29.38,WNW,292,11.4,11.4,44,0.00,,,0.00,VWS V14.01,2013-01-22 05:46:00,
2013-01-22 00:51:00,17.8,-0.4,29.38,West,270,10.1,10.1,44,0.00,,,0.00,VWS V14.01,2013-01-22 05:51:00,
2013-01-22 00:56:00,17.8,-0.4,29.38,WNW,292,5.6,5.6,44,0.00,,,0.00,VWS V14.01,2013-01-22 05:56:00,
2013-01-22 01:01:00,17.6,-0.6,29.38,West,270,9.8,9.8,44,0.00,,,0.00,VWS V14.01,2013-01-22 06:01:00,
2013-01-22 01:06:00,17.4,-0.8,29.38,WSW,248,12.8,12.8,44,0.00,,,0.00,VWS V14.01,2013-01-22 06:06:00,
2013-01-22 01:12:00,17.4,-0.8,29.38,WNW,292,14.3,14.3,44,0.00,,,0.00,VWS V14.01,2013-01-22 06:12:00,
2013-01-22 01:17:00,17.2,-0.9,29.38,WSW,248,12.3,12.3,44,0.00,,,0.00,VWS V14.01,2013-01-22 06:17:00,
2013-01-22 01:22:00,17.1,-1.1,29.41,WNW,292,7.8,7.8,44,0.00,,,0.00,VWS V14.01,2013-01-22 06:22:00,
2013-01-22 01:27:00,17.1,-1.1,29.41,WNW,292,7.6,7.6,44,0.00,,,0.00,VWS V14.01,2013-01-22 06:27:00,
2013-01-22 01:32:00,17.1,-1.1,29.41,WSW,248,10.5,10.5,44,0.00,,,0.00,VWS V14.01,2013-01-22 06:32:00,
2013-01-22 01:37:00,16.9,-1.2,29.44,West,270,12.8,12.8,44,0.00,,,0.00,VWS V14.01,2013-01-22 06:37:00,
2013-01-22 01:42:00,16.9,-1.2,29.44,West,270,10.1,10.1,44,0.00,,,0.00,VWS V14.01,2013-01-22 06:42:00,
2013-01-22 01:47:00,16.9,-1.2,29.44,West,270,12.8,12.8,44,0.00,,,0.00,VWS V14.01,2013-01-22 06:47:00,
2013-01-22 01:52:00,16.9,-1.2,29.44,WNW,292,12.1,12.1,44,0.00,,,0.00,VWS V14.01,2013-01-22 06:52:00,
2013-01-22 01:57:00,16.7,-1.4,29.44,NW,315,8.1,8.1,44,0.00,,,0.00,VWS V14.01,2013-01-22 06:57:00,
2013-01-22 02:02:00,16.7,-1.4,29.44,West,270,9.0,9.0,44,0.00,,,0.00,VWS V14.01,2013-01-22 07:02:00,
2013-01-22 02:07:00,16.7,-1.4,29.44,West,270,6.3,6.3,44,0.00,,,0.00,VWS V14.01,2013-01-22 07:07:00,
2013-01-22 02:12:00,16.5,-1.6,29.44,WSW,248,11.0,11.0,44,0.00,,,0.00,VWS V14.01,2013-01-22 07:12:00,
2013-01-22 02:17:00,16.3,-1.7,29.44,WNW,292,10.5,10.5,44,0.00,,,0.00,VWS V14.01,2013-01-22 07:17:00,
2013-01-22 02:22:00,16.3,-1.7,29.44,WNW,292,6.0,6.0,44,0.00,,,0.00,VWS V14.01,2013-01-22 07:22:00,
2013-01-22 02:27:00,16.3,-1.7,29.44,WNW,292,10.1,10.1,44,0.00,,,0.00,VWS V14.01,2013-01-22 07:27:00,
2013-01-22 02:32:00,16.2,-1.9,29.44,WNW,292,10.7,10.7,44,0.00,,,0.00,VWS V14.01,2013-01-22 07:32:00,
2013-01-22 02:37:00,16.2,-1.9,29.44,WNW,292,13.2,13.2,44,0.00,,,0.00,VWS V14.01,2013-01-22 07:37:00,
2013-01-22 02:42:00,16.0,-2.1,29.44,WNW,292,9.8,9.8,44,0.00,,,0.00,VWS V14.01,2013-01-22 07:42:00,
2013-01-22 02:48:00,16.0,-2.1,29.44,WNW,292,11.4,11.4,44,0.00,,,0.00,VWS V14.01,2013-01-22 07:48:00,
2013-01-22 02:53:00,16.0,-2.1,29.44,WSW,248,10.5,10.5,44,0.00,,,0.00,VWS V14.01,2013-01-22 07:53:00,
2013-01-22 02:58:00,16.0,-2.1,29.44,West,270,6.3,6.3,44,0.00,,,0.00,VWS V14.01,2013-01-22 07:58:00,
2013-01-22 03:03:00,16.0,-2.1,29.44,West,270,8.1,8.1,44,0.00,,,0.00,VWS V14.01,2013-01-22 08:03:00,
2013-01-22 03:08:00,15.8,-2.2,29.44,West,270,7.6,7.6,44,0.00,,,0.00,VWS V14.01,2013-01-22 08:08:00,
2013-01-22 03:13:00,15.8,-2.2,29.44,WSW,248,4.0,4.0,44,0.00,,,0.00,VWS V14.01,2013-01-22 08:13:00,
2013-01-22 03:18:00,15.4,-2.6,29.44,West,270,8.5,8.5,44,0.00,,,0.00,VWS V14.01,2013-01-22 08:18:00,
2013-01-22 03:23:00,15.4,-2.6,29.47,WNW,292,7.4,7.4,44,0.00,,,0.00,VWS V14.01,2013-01-22 08:23:00,
2013-01-22 03:28:00,15.3,-2.7,29.47,West,270,5.6,5.6,44,0.00,,,0.00,VWS V14.01,2013-01-22 08:28:00,
2013-01-22 03:33:00,15.3,-2.7,29.47,WSW,248,11.0,11.0,44,0.00,,,0.00,VWS V14.01,2013-01-22 08:33:00,
2013-01-22 03:38:00,15.1,-2.9,29.44,WNW,292,8.5,8.5,44,0.00,,,0.00,VWS V14.01,2013-01-22 08:38:00,
2013-01-22 03:43:00,15.1,-2.9,29.44,West,270,6.9,6.9,44,0.00,,,0.00,VWS V14.01,2013-01-22 08:43:00,
2013-01-22 03:48:00,14.9,-3.1,29.44,West,270,14.5,14.5,44,0.00,,,0.00,VWS V14.01,2013-01-22 08:48:00,
2013-01-22 03:53:00,14.9,-2.6,29.47,West,270,13.0,13.0,45,0.00,,,0.00,VWS V14.01,2013-01-22 08:53:00,
2013-01-22 03:58:00,14.9,-2.6,29.47,WNW,292,10.5,10.5,45,0.00,,,0.00,VWS V14.01,2013-01-22 08:58:00,
2013-01-22 04:03:00,14.9,-2.6,29.47,WNW,292,9.6,9.6,45,0.00,,,0.00,VWS V14.01,2013-01-22 09:03:00,
2013-01-22 04:08:00,14.9,-2.6,29.47,WNW,292,8.1,8.1,45,0.00,,,0.00,VWS V14.01,2013-01-22 09:08:00,
2013-01-22 04:14:00,14.9,-2.6,29.47,West,270,13.0,13.0,45,0.00,,,0.00,VWS V14.01,2013-01-22 09:14:00,
2013-01-22 04:19:00,14.7,-2.3,29.47,West,270,13.2,13.2,46,0.00,,,0.00,VWS V14.01,2013-01-22 09:19:00,
2013-01-22 04:24:00,14.9,-2.1,29.47,WNW,292,8.1,8.1,46,0.00,,,0.00,VWS V14.01,2013-01-22 09:24:00,
2013-01-22 04:29:00,14.9,-1.7,29.47,West,270,11.4,11.4,47,0.00,,,0.00,VWS V14.01,2013-01-22 09:29:00,
2013-01-22 04:34:00,14.9,-1.2,29.47,West,270,7.8,7.8,48,0.00,,,0.00,VWS V14.01,2013-01-22 09:34:00,
2013-01-22 04:39:00,15.1,-1.1,29.47,WNW,292,8.7,8.7,48,0.00,,,0.00,VWS V14.01,2013-01-22 09:39:00,
2013-01-22 04:44:00,15.1,-1.5,29.47,WNW,292,7.6,7.6,47,0.00,,,0.00,VWS V14.01,2013-01-22 09:44:00,
2013-01-22 04:49:00,14.9,-1.7,29.47,West,270,5.8,5.8,47,0.00,,,0.00,VWS V14.01,2013-01-22 09:49:00,
2013-01-22 04:54:00,14.9,-0.8,29.50,WSW,248,8.1,8.1,49,0.00,,,0.00,VWS V14.01,2013-01-22 09:54:00,
2013-01-22 04:59:00,14.7,-0.5,29.50,WSW,248,4.9,4.9,50,0.00,,,0.00,VWS V14.01,2013-01-22 09:59:00,
2013-01-22 05:04:00,14.9,-0.4,29.50,WSW,248,13.0,13.0,50,0.00,,,0.00,VWS V14.01,2013-01-22 10:04:00,
2013-01-22 05:09:00,14.7,-0.5,29.50,WNW,292,7.4,7.4,50,0.00,,,0.00,VWS V14.01,2013-01-22 10:09:00,
2013-01-22 05:14:00,14.5,-1.1,29.50,WNW,292,9.8,9.8,49,0.00,,,0.00,VWS V14.01,2013-01-22 10:14:00,
2013-01-22 05:19:00,14.2,-1.9,29.50,WSW,248,3.6,3.6,48,0.00,,,0.00,VWS V14.01,2013-01-22 10:19:00,
2013-01-22 05:24:00,14.2,-1.9,29.50,WSW,248,10.3,10.3,48,0.00,,,0.00,VWS V14.01,2013-01-22 10:24:00,
2013-01-22 05:29:00,14.2,-2.3,29.50,WSW,248,8.7,8.7,47,0.00,,,0.00,VWS V14.01,2013-01-22 10:29:00,
2013-01-22 05:34:00,13.8,-2.7,29.50,WNW,292,9.4,9.4,47,0.00,,,0.00,VWS V14.01,2013-01-22 10:34:00,
2013-01-22 05:39:00,13.8,-2.7,29.50,WNW,292,13.4,13.4,47,0.00,,,0.00,VWS V14.01,2013-01-22 10:39:00,
2013-01-22 05:44:00,13.6,-2.8,29.50,WNW,292,12.1,12.1,47,0.00,,,0.00,VWS V14.01,2013-01-22 10:44:00,
2013-01-22 05:49:00,13.6,-2.8,29.50,WSW,248,12.3,12.3,47,0.00,,,0.00,VWS V14.01,2013-01-22 10:49:00,
2013-01-22 05:54:00,13.6,-2.8,29.50,WSW,248,7.8,7.8,47,0.00,,,0.00,VWS V14.01,2013-01-22 10:54:00,
2013-01-22 05:59:00,13.5,-3.0,29.50,WSW,248,13.0,13.0,47,0.00,,,0.00,VWS V14.01,2013-01-22 10:59:00,
2013-01-22 06:05:00,13.5,-3.0,29.50,WSW,248,6.3,6.3,47,0.00,,,0.00,VWS V14.01,2013-01-22 11:05:00,
2013-01-22 06:10:00,13.3,-3.2,29.50,WSW,248,9.4,9.4,47,0.00,,,0.00,VWS V14.01,2013-01-22 11:10:00,
2013-01-22 06:15:00,13.3,-3.2,29.50,West,270,8.1,8.1,47,0.00,,,0.00,VWS V14.01,2013-01-22 11:15:00,
2013-01-22 06:20:00,13.1,-3.3,29.47,WSW,248,8.7,8.7,47,0.00,,,0.00,VWS V14.01,2013-01-22 11:20:00,
2013-01-22 06:25:00,13.1,-3.3,29.47,WSW,248,8.1,8.1,47,0.00,,,0.00,VWS V14.01,2013-01-22 11:25:00,
2013-01-22 06:30:00,13.1,-3.3,29.47,WNW,292,7.8,7.8,47,0.00,,,0.00,VWS V14.01,2013-01-22 11:30:00,
2013-01-22 06:35:00,12.9,-3.5,29.50,WNW,292,8.1,8.1,47,0.00,,,0.00,VWS V14.01,2013-01-22 11:35:00,
2013-01-22 06:40:00,13.1,-3.3,29.50,WNW,292,9.6,9.6,47,0.00,,,0.00,VWS V14.01,2013-01-22 11:40:00,
2013-01-22 06:45:00,12.7,-3.7,29.50,West,270,10.7,10.7,47,0.00,,,0.00,VWS V14.01,2013-01-22 11:45:00,
2013-01-22 06:50:00,12.7,-3.7,29.53,WNW,292,5.4,5.4,47,0.00,,,0.00,VWS V14.01,2013-01-22 11:50:00,
2013-01-22 06:55:00,12.7,-3.7,29.53,West,270,7.6,7.6,47,0.00,,,0.00,VWS V14.01,2013-01-22 11:55:00,
2013-01-22 07:00:00,12.7,-3.7,29.53,WSW,248,5.6,5.6,47,0.00,,,0.00,VWS V14.01,2013-01-22 12:00:00,
2013-01-22 07:05:00,12.6,-3.8,29.53,WNW,292,13.2,13.2,47,0.00,,,0.00,VWS V14.01,2013-01-22 12:05:00,
2013-01-22 07:10:00,12.6,-3.8,29.53,WNW,292,10.7,10.7,47,0.00,,,0.00,VWS V14.01,2013-01-22 12:10:00,
2013-01-22 07:15:00,12.6,-3.8,29.53,West,270,10.7,10.7,47,0.00,,,0.00,VWS V14.01,2013-01-22 12:15:00,
2013-01-22 07:20:00,12.4,-4.0,29.53,West,270,8.1,8.1,47,0.00,,,0.00,VWS V14.01,2013-01-22 12:20:00,
2013-01-22 07:25:00,12.4,-4.0,29.53,West,270,10.1,10.1,47,0.00,,,0.00,VWS V14.01,2013-01-22 12:25:00,
2013-01-22 07:30:00,12.2,-4.2,29.53,West,270,10.1,10.1,47,0.00,,,0.00,VWS V14.01,2013-01-22 12:30:00,
2013-01-22 07:35:00,12.2,-4.2,29.56,WNW,292,17.5,17.5,47,0.00,,,0.00,VWS V14.01,2013-01-22 12:35:00,
2013-01-22 07:40:00,12.4,-4.0,29.56,WNW,292,7.4,7.4,47,0.00,,,0.00,VWS V14.01,2013-01-22 12:40:00,
2013-01-22 07:45:00,12.2,-4.2,29.56,NW,315,6.5,6.5,47,0.00,,,0.00,VWS V14.01,2013-01-22 12:45:00,
2013-01-22 07:50:00,12.4,-4.0,29.56,WNW,292,8.1,8.1,47,0.00,,,0.00,VWS V14.01,2013-01-22 12:50:00,
2013-01-22 07:55:00,12.2,-4.2,29.56,West,270,12.8,12.8,47,0.00,,,0.00,VWS V14.01,2013-01-22 12:55:00,
2013-01-22 08:00:00,12.2,-4.2,29.56,WNW,292,7.8,7.8,47,0.00,,,0.00,VWS V14.01,2013-01-22 13:00:00,
2013-01-22 08:05:00,12.2,-4.2,29.56,WSW,248,8.1,8.1,47,0.00,,,0.00,VWS V14.01,2013-01-22 13:05:00,
2013-01-22 08:10:00,12.2,-4.2,29.56,NNW,338,9.8,9.8,47,0.00,,,0.00,VWS V14.01,2013-01-22 13:10:00,
2013-01-22 08:15:00,12.2,-4.2,29.56,WNW,292,12.3,12.3,47,0.00,,,0.00,VWS V14.01,2013-01-22 13:15:00,
2013-01-22 08:20:00,12.2,-4.2,29.53,West,270,7.8,7.8,47,0.00,,,0.00,VWS V14.01,2013-01-22 13:20:00,
2013-01-22 08:26:00,12.2,-4.2,29.53,West,270,5.4,5.4,47,0.00,,,0.00,VWS V14.01,2013-01-22 13:26:00,
2013-01-22 08:31:00,12.2,-4.2,29.53,West,270,12.3,12.3,47,0.00,,,0.00,VWS V14.01,2013-01-22 13:31:00,
2013-01-22 08:36:00,12.2,-4.2,29.56,West,270,6.9,6.9,47,0.00,,,0.00,VWS V14.01,2013-01-22 13:36:00,
2013-01-22 08:41:00,12.2,-4.2,29.56,West,270,9.2,9.2,47,0.00,,,0.00,VWS V14.01,2013-01-22 13:41:00,
2013-01-22 08:46:00,12.6,-3.8,29.56,WNW,292,7.4,7.4,47,0.00,,,0.00,VWS V14.01,2013-01-22 13:46:00,
2013-01-22 08:51:00,12.6,-3.8,29.56,WNW,292,8.1,8.1,47,0.00,,,0.00,VWS V14.01,2013-01-22 13:51:00,
2013-01-22 08:56:00,12.4,-4.0,29.56,WNW,292,12.8,12.8,47,0.00,,,0.00,VWS V14.01,2013-01-22 13:56:00,
2013-01-22 09:02:00,12.6,-3.8,29.56,WNW,292,7.4,7.4,47,0.00,,,0.00,VWS V14.01,2013-01-22 14:02:00,
2013-01-22 09:07:00,12.6,-3.8,29.56,WNW,292,9.2,9.2,47,0.00,,,0.00,VWS V14.01,2013-01-22 14:07:00,
2013-01-22 09:12:00,12.7,-3.7,29.56,WNW,292,5.6,5.6,47,0.00,,,0.00,VWS V14.01,2013-01-22 14:12:00,
2013-01-22 09:17:00,12.7,-3.7,29.56,WNW,292,10.5,10.5,47,0.00,,,0.00,VWS V14.01,2013-01-22 14:17:00,
2013-01-22 09:22:00,12.9,-3.5,29.59,NW,315,13.0,13.0,47,0.00,,,0.00,VWS V14.01,2013-01-22 14:22:00,
2013-01-22 09:27:00,12.7,-3.7,29.59,WNW,292,10.5,10.5,47,0.00,,,0.00,VWS V14.01,2013-01-22 14:27:00,
2013-01-22 09:32:00,12.9,-3.5,29.59,NW,315,8.5,8.5,47,0.00,,,0.00,VWS V14.01,2013-01-22 14:32:00,
2013-01-22 09:37:00,12.9,-3.5,29.59,NW,315,7.4,7.4,47,0.00,,,0.00,VWS V14.01,2013-01-22 14:37:00,
2013-01-22 09:43:00,12.9,-3.5,29.59,NW,315,8.1,8.1,47,0.00,,,0.00,VWS V14.01,2013-01-22 14:43:00,
2013-01-22 09:48:00,13.3,-3.2,29.59,WNW,292,7.6,7.6,47,0.00,,,0.00,VWS V14.01,2013-01-22 14:48:00,
2013-01-22 09:53:00,13.3,-3.2,29.59,NW,315,8.7,8.7,47,0.00,,,0.00,VWS V14.01,2013-01-22 14:53:00,
2013-01-22 09:58:00,13.6,-2.8,29.59,WNW,292,8.7,8.7,47,0.00,,,0.00,VWS V14.01,2013-01-22 14:58:00,
2013-01-22 10:03:00,13.6,-2.8,29.59,WNW,292,10.7,10.7,47,0.00,,,0.00,VWS V14.01,2013-01-22 15:03:00,
2013-01-22 10:08:00,13.8,-2.7,29.59,NNW,338,13.6,13.6,47,0.00,,,0.00,VWS V14.01,2013-01-22 15:08:00,
2013-01-22 10:13:00,13.6,-2.8,29.59,NW,315,4.3,4.3,47,0.00,,,0.00,VWS V14.01,2013-01-22 15:13:00,
2013-01-22 10:18:00,14.2,-4.2,29.59,West,270,7.4,7.4,43,0.00,,,0.00,VWS V14.01,2013-01-22 15:18:00,
2013-01-22 10:23:00,14.4,-4.0,29.59,WNW,292,10.7,10.7,43,0.00,,,0.00,VWS V14.01,2013-01-22 15:23:00,
2013-01-22 10:28:00,14.4,-4.5,29.59,NNW,338,17.2,17.2,42,0.00,,,0.00,VWS V14.01,2013-01-22 15:28:00,
2013-01-22 10:33:00,14.4,-4.5,29.59,WNW,292,11.0,11.0,42,0.00,,,0.00,VWS V14.01,2013-01-22 15:33:00,
2013-01-22 10:38:00,14.5,-4.4,29.59,NW,315,9.2,9.2,42,0.00,,,0.00,VWS V14.01,2013-01-22 15:38:00,
2013-01-22 10:43:00,14.5,-4.9,29.59,NW,315,9.6,9.6,41,0.00,,,0.00,VWS V14.01,2013-01-22 15:43:00,
2013-01-22 10:48:00,14.7,-4.7,29.59,WNW,292,9.8,9.8,41,0.00,,,0.00,VWS V14.01,2013-01-22 15:48:00,
2013-01-22 10:53:00,14.9,-4.5,29.59,WNW,292,8.5,8.5,41,0.00,,,0.00,VWS V14.01,2013-01-22 15:53:00,
2013-01-22 10:59:00,14.9,-4.5,29.59,WNW,292,7.8,7.8,41,0.00,,,0.00,VWS V14.01,2013-01-22 15:59:00,
2013-01-22 11:04:00,15.4,-4.0,29.59,WNW,292,17.7,17.7,41,0.00,,,0.00,VWS V14.01,2013-01-22 16:04:00,
2013-01-22 11:09:00,15.3,-4.2,29.59,NW,315,8.5,8.5,41,0.00,,,0.00,VWS V14.01,2013-01-22 16:09:00,
2013-01-22 11:14:00,15.3,-4.2,29.59,WSW,248,8.1,8.1,41,0.00,,,0.00,VWS V14.01,2013-01-22 16:14:00,
2013-01-22 11:19:00,15.3,-4.2,29.59,WSW,248,7.8,7.8,41,0.00,,,0.00,VWS V14.01,2013-01-22 16:19:00,
2013-01-22 11:24:00,15.1,-4.9,29.59,WNW,292,12.5,12.5,40,0.00,,,0.00,VWS V14.01,2013-01-22 16:24:00,
2013-01-22 11:29:00,15.1,-4.4,29.59,West,270,7.6,7.6,41,0.00,,,0.00,VWS V14.01,2013-01-22 16:29:00,
2013-01-22 11:34:00,15.8,-3.7,29.59,WNW,292,6.5,6.5,41,0.00,,,0.00,VWS V14.01,2013-01-22 16:34:00,
2013-01-22 11:39:00,15.8,-3.7,29.59,West,270,8.1,8.1,41,0.00,,,0.00,VWS V14.01,2013-01-22 16:39:00,
2013-01-22 11:44:00,15.4,-4.6,29.59,WNW,292,13.4,13.4,40,0.00,,,0.00,VWS V14.01,2013-01-22 16:44:00,
2013-01-22 11:49:00,15.3,-5.2,29.59,WNW,292,10.1,10.1,39,0.00,,,0.00,VWS V14.01,2013-01-22 16:49:00,
2013-01-22 11:54:00,15.3,-5.2,29.59,WNW,292,10.3,10.3,39,0.00,,,0.00,VWS V14.01,2013-01-22 16:54:00,
2013-01-22 12:00:00,15.4,-5.1,29.59,WNW,292,7.8,7.8,39,0.00,,,0.00,VWS V14.01,2013-01-22 17:00:00,
2013-01-22 12:05:00,15.8,-4.8,29.59,WNW,292,12.3,12.3,39,0.00,,,0.00,VWS V14.01,2013-01-22 17:05:00,
2013-01-22 12:10:00,15.4,-5.1,29.59,WNW,292,12.8,12.8,39,0.00,,,0.00,VWS V14.01,2013-01-22 17:10:00,
2013-01-22 12:15:00,15.4,-5.1,29.59,West,270,10.5,10.5,39,0.00,,,0.00,VWS V14.01,2013-01-22 17:15:00,
2013-01-22 12:20:00,15.4,-5.1,29.56,NW,315,13.2,13.2,39,0.00,,,0.00,VWS V14.01,2013-01-22 17:20:00,
2013-01-22 12:25:00,15.4,-5.1,29.56,West,270,13.0,13.0,39,0.00,,,0.00,VWS V14.01,2013-01-22 17:25:00,
2013-01-22 12:30:00,15.4,-5.1,29.56,WNW,292,7.8,7.8,39,0.00,,,0.00,VWS V14.01,2013-01-22 17:30:00,
2013-01-22 12:35:00,15.4,-5.1,29.56,NW,315,9.0,9.0,39,0.00,,,0.00,VWS V14.01,2013-01-22 17:35:00,
2013-01-22 12:40:00,16.0,-4.6,29.56,WNW,292,9.8,9.8,39,0.00,,,0.00,VWS V14.01,2013-01-22 17:40:00,
2013-01-22 12:45:00,15.6,-5.5,29.56,West,270,13.0,13.0,38,0.00,,,0.00,VWS V14.01,2013-01-22 17:45:00,
2013-01-22 12:50:00,15.4,-5.6,29.56,WNW,292,6.0,6.0,38,0.00,,,0.00,VWS V14.01,2013-01-22 17:50:00,
2013-01-22 12:55:00,15.8,-4.8,29.56,WNW,292,6.3,6.3,39,0.00,,,0.00,VWS V14.01,2013-01-22 17:55:00,
2013-01-22 13:00:00,15.6,-4.9,29.56,WNW,292,12.5,12.5,39,0.00,,,0.00,VWS V14.01,2013-01-22 18:00:00,
2013-01-22 13:05:00,15.6,-4.4,29.56,NW,315,9.6,9.6,40,0.00,,,0.00,VWS V14.01,2013-01-22 18:05:00,
2013-01-22 13:10:00,15.6,-3.9,29.56,West,270,4.9,4.9,41,0.00,,,0.00,VWS V14.01,2013-01-22 18:10:00,
2013-01-22 13:15:00,15.8,-3.7,29.56,WNW,292,6.5,6.5,41,0.00,,,0.00,VWS V14.01,2013-01-22 18:15:00,
2013-01-22 13:20:00,16.2,-3.9,29.56,WNW,292,5.8,5.8,40,0.00,,,0.00,VWS V14.01,2013-01-22 18:20:00,
2013-01-22 13:25:00,16.0,-4.1,29.56,West,270,10.7,10.7,40,0.00,,,0.00,VWS V14.01,2013-01-22 18:25:00,
2013-01-22 13:30:00,16.0,-3.5,29.56,WNW,292,7.8,7.8,41,0.00,,,0.00,VWS V14.01,2013-01-22 18:30:00,
2013-01-22 13:35:00,16.3,-3.2,29.56,WNW,292,5.4,5.4,41,0.00,,,0.00,VWS V14.01,2013-01-22 18:35:00,
2013-01-22 13:40:00,16.7,-2.9,29.56,NW,315,10.3,10.3,41,0.00,,,0.00,VWS V14.01,2013-01-22 18:40:00,
2013-01-22 13:45:00,16.5,-2.6,29.56,WSW,248,9.8,9.8,42,0.00,,,0.00,VWS V14.01,2013-01-22 18:45:00,
2013-01-22 13:50:00,16.5,-2.1,29.56,WNW,292,13.6,13.6,43,0.00,,,0.00,VWS V14.01,2013-01-22 18:50:00,
2013-01-22 13:55:00,16.2,-2.4,29.56,NNW,338,10.1,10.1,43,0.00,,,0.00,VWS V14.01,2013-01-22 18:55:00,
2013-01-22 14:00:00,16.2,-2.4,29.56,NNW,338,10.1,10.1,43,0.00,,,0.00,VWS V14.01,2013-01-22 19:00:00,
2013-01-22 14:05:00,16.0,-2.6,29.56,WNW,292,8.1,8.1,43,0.00,,,0.00,VWS V14.01,2013-01-22 19:05:00,
2013-01-22 14:10:00,16.0,-2.6,29.56,West,270,6.0,6.0,43,0.00,,,0.00,VWS V14.01,2013-01-22 19:10:00,
2013-01-22 14:15:00,16.2,-2.4,29.56,WNW,292,5.6,5.6,43,0.00,,,0.00,VWS V14.01,2013-01-22 19:15:00,
2013-01-22 14:20:00,16.3,-2.2,29.53,WNW,292,6.3,6.3,43,0.00,,,0.00,VWS V14.01,2013-01-22 19:20:00,
2013-01-22 14:25:00,16.7,-1.9,29.53,WNW,292,9.4,9.4,43,0.00,,,0.00,VWS V14.01,2013-01-22 19:25:00,
2013-01-22 14:31:00,16.5,-3.1,29.53,WNW,292,13.0,13.0,41,0.00,,,0.00,VWS V14.01,2013-01-22 19:31:00,
2013-01-22 14:36:00,16.7,-2.9,29.56,West,270,6.0,6.0,41,0.00,,,0.00,VWS V14.01,2013-01-22 19:36:00,
2013-01-22 14:41:00,16.9,-3.8,29.56,WNW,292,9.6,9.6,39,0.00,,,0.00,VWS V14.01,2013-01-22 19:41:00,
2013-01-22 14:46:00,16.7,-3.9,29.56,West,270,13.4,13.4,39,0.00,,,0.00,VWS V14.01,2013-01-22 19:46:00,
2013-01-22 14:51:00,16.9,-4.3,29.56,West,270,9.8,9.8,38,0.00,,,0.00,VWS V14.01,2013-01-22 19:51:00,
2013-01-22 14:56:00,17.6,-3.1,29.56,NW,315,8.5,8.5,39,0.00,,,0.00,VWS V14.01,2013-01-22 19:56:00,
2013-01-22 15:01:00,17.4,-3.8,29.56,NW,315,12.8,12.8,38,0.00,,,0.00,VWS V14.01,2013-01-22 20:01:00,
2013-01-22 15:06:00,17.8,-3.0,29.56,West,270,13.2,13.2,39,0.00,,,0.00,VWS V14.01,2013-01-22 20:06:00,
2013-01-22 15:11:00,17.6,-3.1,29.56,WNW,292,6.0,6.0,39,0.00,,,0.00,VWS V14.01,2013-01-22 20:11:00,
2013-01-22 15:16:00,17.4,-3.3,29.56,WSW,248,10.7,10.7,39,0.00,,,0.00,VWS V14.01,2013-01-22 20:16:00,
2013-01-22 15:21:00,16.9,-3.2,29.56,WNW,292,10.1,10.1,40,0.00,,,0.00,VWS V14.01,2013-01-22 20:21:00,
2013-01-22 15:27:00,16.7,-3.9,29.56,WNW,292,7.8,7.8,39,0.00,,,0.00,VWS V14.01,2013-01-22 20:27:00,
2013-01-22 15:32:00,16.7,-3.9,29.56,WNW,292,8.5,8.5,39,0.00,,,0.00,VWS V14.01,2013-01-22 20:32:00,
2013-01-22 15:37:00,16.9,-3.8,29.59,NW,315,14.3,14.3,39,0.00,,,0.00,VWS V14.01,2013-01-22 20:37:00,
2013-01-22 15:42:00,16.9,-4.3,29.59,West,270,19.0,19.0,38,0.00,,,0.00,VWS V14.01,2013-01-22 20:42:00,
2013-01-22 15:47:00,16.7,-4.5,29.59,WNW,292,15.2,15.2,38,0.00,,,0.00,VWS V14.01,2013-01-22 20:47:00,
2013-01-22 15:52:00,16.2,-5.0,29.59,WNW,292,19.9,19.9,38,0.00,,,0.00,VWS V14.01,2013-01-22 20:52:00,
2013-01-22 15:57:00,16.2,-4.4,29.59,WNW,292,12.3,12.3,39,0.00,,,0.00,VWS V14.01,2013-01-22 20:57:00,
2013-01-22 16:02:00,15.8,-4.8,29.59,WNW,292,15.4,15.4,39,0.00,,,0.00,VWS V14.01,2013-01-22 21:02:00,
2013-01-22 16:07:00,15.8,-4.2,29.59,West,270,12.8,12.8,40,0.00,,,0.00,VWS V14.01,2013-01-22 21:07:00,
2013-01-22 16:13:00,16.0,-3.5,29.59,NNW,338,5.4,5.4,41,0.00,,,0.00,VWS V14.01,2013-01-22 21:13:00,
2013-01-22 16:18:00,15.8,-3.7,29.59,NNW,338,3.8,3.8,41,0.00,,,0.00,VWS V14.01,2013-01-22 21:18:00,
2013-01-22 16:23:00,16.2,-3.4,29.62,West,270,6.3,6.3,41,0.00,,,0.00,VWS V14.01,2013-01-22 21:23:00,
2013-01-22 16:28:00,16.2,-3.4,29.62,WNW,292,8.1,8.1,41,0.00,,,0.00,VWS V14.01,2013-01-22 21:28:00,
2013-01-22 16:31:00,16.2,-3.4,29.62,WNW,292,12.3,12.3,41,0.00,,,0.00,VWS V14.01,2013-01-22 21:31:00,
2013-01-22 16:36:00,15.8,-3.2,29.62,WNW,292,8.1,8.1,42,0.00,,,0.00,VWS V14.01,2013-01-22 21:36:00,
2013-01-22 16:42:00,15.3,-3.2,29.62,WNW,292,10.1,10.1,43,0.00,,,0.00,VWS V14.01,2013-01-22 21:42:00,
2013-01-22 16:47:00,15.3,-3.2,29.62,NW,315,4.9,4.9,43,0.00,,,0.00,VWS V14.01,2013-01-22 21:47:00,
2013-01-22 16:52:00,15.1,-2.9,29.62,WNW,292,6.3,6.3,44,0.00,,,0.00,VWS V14.01,2013-01-22 21:52:00,
2013-01-22 16:57:00,14.9,-3.1,29.62,North,0,11.2,11.2,44,0.00,,,0.00,VWS V14.01,2013-01-22 21:57:00,
2013-01-22 17:02:00,14.7,-2.8,29.62,NNW,338,6.0,6.0,45,0.00,,,0.00,VWS V14.01,2013-01-22 22:02:00,
2013-01-22 17:07:00,14.5,-2.0,29.62,NNW,338,5.4,5.4,47,0.00,,,0.00,VWS V14.01,2013-01-22 22:07:00,
2013-01-22 17:12:00,14.4,-2.2,29.62,WNW,292,8.5,8.5,47,0.00,,,0.00,VWS V14.01,2013-01-22 22:12:00,
2013-01-22 17:17:00,14.4,-1.7,29.62,WNW,292,5.4,5.4,48,0.00,,,0.00,VWS V14.01,2013-01-22 22:17:00,
2013-01-22 17:22:00,14.4,-2.2,29.62,WNW,292,4.3,4.3,47,0.00,,,0.00,VWS V14.01,2013-01-22 22:22:00,
2013-01-22 17:27:00,14.4,-2.2,29.62,NW,315,5.6,5.6,47,0.00,,,0.00,VWS V14.01,2013-01-22 22:27:00,
2013-01-22 17:32:00,14.2,-3.2,29.62,WNW,292,8.1,8.1,45,0.00,,,0.00,VWS V14.01,2013-01-22 22:32:00,
2013-01-22 17:37:00,14.2,-3.2,29.62,WNW,292,7.4,7.4,45,0.00,,,0.00,VWS V14.01,2013-01-22 22:37:00,
2013-01-22 17:43:00,14.2,-3.7,29.62,WSW,248,5.8,5.8,44,0.00,,,0.00,VWS V14.01,2013-01-22 22:43:00,
2013-01-22 17:48:00,14.2,-3.7,29.62,WNW,292,8.1,8.1,44,0.00,,,0.00,VWS V14.01,2013-01-22 22:48:00,
2013-01-22 17:53:00,14.2,-3.2,29.65,West,270,12.1,12.1,45,0.00,,,0.00,VWS V14.01,2013-01-22 22:53:00,
2013-01-22 17:58:00,13.8,-3.6,29.65,WNW,292,5.6,5.6,45,0.00,,,0.00,VWS V14.01,2013-01-22 22:58:00,
2013-01-22 18:03:00,13.8,-3.6,29.65,WSW,248,7.4,7.4,45,0.00,,,0.00,VWS V14.01,2013-01-22 23:03:00,
2013-01-22 18:08:00,13.8,-3.6,29.65,WNW,292,3.8,3.8,45,0.00,,,0.00,VWS V14.01,2013-01-22 23:08:00,
2013-01-22 18:13:00,13.8,-3.6,29.65,NNW,338,8.5,8.5,45,0.00,,,0.00,VWS V14.01,2013-01-22 23:13:00,
2013-01-22 18:18:00,13.8,-3.6,29.65,WNW,292,5.8,5.8,45,0.00,,,0.00,VWS V14.01,2013-01-22 23:18:00,
2013-01-22 18:23:00,13.8,-3.6,29.68,WNW,292,5.4,5.4,45,0.00,,,0.00,VWS V14.01,2013-01-22 23:23:00,
2013-01-22 18:28:00,13.5,-3.9,29.68,NW,315,6.7,6.7,45,0.00,,,0.00,VWS V14.01,2013-01-22 23:28:00,
2013-01-22 18:33:00,13.3,-4.1,29.68,NW,315,7.8,7.8,45,0.00,,,0.00,VWS V14.01,2013-01-22 23:33:00,
2013-01-22 18:38:00,13.3,-4.1,29.68,WNW,292,7.8,7.8,45,0.00,,,0.00,VWS V14.01,2013-01-22 23:38:00,
2013-01-22 18:43:00,12.9,-4.4,29.68,West,270,6.0,6.0,45,0.00,,,0.00,VWS V14.01,2013-01-22 23:43:00,
2013-01-22 18:48:00,12.6,-4.7,29.68,NW,315,10.3,10.3,45,0.00,,,0.00,VWS V14.01,2013-01-22 23:48:00,
2013-01-22 18:53:00,12.6,-4.7,29.68,WSW,248,7.6,7.6,45,0.00,,,0.00,VWS V14.01,2013-01-22 23:53:00,
2013-01-22 18:58:00,12.4,-4.9,29.68,WNW,292,9.8,9.8,45,0.00,,,0.00,VWS V14.01,2013-01-22 23:58:00,
2013-01-22 19:03:00,12.2,-5.1,29.68,WNW,292,8.5,8.5,45,0.00,,,0.00,VWS V14.01,2013-01-23 00:03:00,
2013-01-22 19:08:00,12.2,-5.1,29.65,NW,315,10.5,10.5,45,0.00,,,0.00,VWS V14.01,2013-01-23 00:08:00,
2013-01-22 19:13:00,12.2,-5.1,29.65,WSW,248,7.4,7.4,45,0.00,,,0.00,VWS V14.01,2013-01-23 00:13:00,
2013-01-22 19:18:00,12.0,-5.2,29.65,NW,315,6.5,6.5,45,0.00,,,0.00,VWS V14.01,2013-01-23 00:18:00,
2013-01-22 19:23:00,12.0,-5.2,29.68,West,270,4.0,4.0,45,0.00,,,0.00,VWS V14.01,2013-01-23 00:23:00,
2013-01-22 19:28:00,11.8,-5.4,29.68,West,270,5.4,5.4,45,0.00,,,0.00,VWS V14.01,2013-01-23 00:28:00,
2013-01-22 19:33:00,12.0,-5.2,29.68,West,270,7.4,7.4,45,0.00,,,0.00,VWS V14.01,2013-01-23 00:33:00,
2013-01-22 19:38:00,12.0,-5.2,29.65,WNW,292,3.1,3.1,45,0.00,,,0.00,VWS V14.01,2013-01-23 00:38:00,
2013-01-22 19:44:00,11.8,-5.4,29.65,WNW,292,4.0,4.0,45,0.00,,,0.00,VWS V14.01,2013-01-23 00:44:00,
2013-01-22 19:49:00,11.8,-5.4,29.65,WNW,292,5.6,5.6,45,0.00,,,0.00,VWS V14.01,2013-01-23 00:49:00,
2013-01-22 19:54:00,11.8,-5.4,29.68,WNW,292,3.6,3.6,45,0.00,,,0.00,VWS V14.01,2013-01-23 00:54:00,
2013-01-22 19:59:00,11.8,-5.4,29.68,WSW,248,3.1,3.1,45,0.00,,,0.00,VWS V14.01,2013-01-23 00:59:00,
2013-01-22 20:04:00,11.8,-5.4,29.68,WNW,292,8.1,8.1,45,0.00,,,0.00,VWS V14.01,2013-01-23 01:04:00,
2013-01-22 20:09:00,11.7,-5.6,29.68,West,270,6.3,6.3,45,0.00,,,0.00,VWS V14.01,2013-01-23 01:09:00,
2013-01-22 20:14:00,11.8,-5.4,29.68,West,270,5.6,5.6,45,0.00,,,0.00,VWS V14.01,2013-01-23 01:14:00,
2013-01-22 20:19:00,11.8,-5.4,29.68,WNW,292,6.0,6.0,45,0.00,,,0.00,VWS V14.01,2013-01-23 01:19:00,
2013-01-22 20:24:00,11.7,-5.6,29.68,WNW,292,3.6,3.6,45,0.00,,,0.00,VWS V14.01,2013-01-23 01:24:00,
2013-01-22 20:29:00,11.8,-5.4,29.68,West,270,3.6,3.6,45,0.00,,,0.00,VWS V14.01,2013-01-23 01:29:00,
2013-01-22 20:34:00,11.7,-5.6,29.71,WSW,248,3.8,3.8,45,0.00,,,0.00,VWS V14.01,2013-01-23 01:34:00,
2013-01-22 20:39:00,11.5,-5.7,29.71,West,270,8.7,8.7,45,0.00,,,0.00,VWS V14.01,2013-01-23 01:39:00,
2013-01-22 20:44:00,11.7,-5.6,29.71,WNW,292,4.0,4.0,45,0.00,,,0.00,VWS V14.01,2013-01-23 01:44:00,
2013-01-22 20:49:00,11.3,-5.9,29.71,West,270,6.3,6.3,45,0.00,,,0.00,VWS V14.01,2013-01-23 01:49:00,
2013-01-22 20:54:00,11.3,-5.9,29.71,West,270,5.4,5.4,45,0.00,,,0.00,VWS V14.01,2013-01-23 01:54:00,
2013-01-22 20:59:00,11.3,-5.9,29.71,WSW,248,5.4,5.4,45,0.00,,,0.00,VWS V14.01,2013-01-23 01:59:00,
2013-01-22 21:04:00,11.1,-6.1,29.71,West,270,9.6,9.6,45,0.00,,,0.00,VWS V14.01,2013-01-23 02:04:00,
2013-01-22 21:09:00,11.1,-6.1,29.71,West,270,6.5,6.5,45,0.00,,,0.00,VWS V14.01,2013-01-23 02:09:00,
2013-01-22 21:14:00,11.1,-6.1,29.71,West,270,8.5,8.5,45,0.00,,,0.00,VWS V14.01,2013-01-23 02:14:00,
2013-01-22 21:19:00,11.1,-6.1,29.71,WNW,292,8.5,8.5,45,0.00,,,0.00,VWS V14.01,2013-01-23 02:19:00,
2013-01-22 21:24:00,11.1,-6.1,29.71,West,270,10.7,10.7,45,0.00,,,0.00,VWS V14.01,2013-01-23 02:24:00,
2013-01-22 21:29:00,11.1,-6.1,29.71,West,270,9.6,9.6,45,0.00,,,0.00,VWS V14.01,2013-01-23 02:29:00,
2013-01-22 21:34:00,10.9,-6.2,29.68,West,270,5.6,5.6,45,0.00,,,0.00,VWS V14.01,2013-01-23 02:34:00,
2013-01-22 21:39:00,10.9,-6.2,29.68,West,270,3.6,3.6,45,0.00,,,0.00,VWS V14.01,2013-01-23 02:39:00,
2013-01-22 21:44:00,10.9,-6.2,29.68,West,270,7.8,7.8,45,0.00,,,0.00,VWS V14.01,2013-01-23 02:44:00,
2013-01-22 21:49:00,10.8,-6.4,29.71,West,270,5.6,5.6,45,0.00,,,0.00,VWS V14.01,2013-01-23 02:49:00,
2013-01-22 21:54:00,10.8,-6.4,29.71,North,0,6.5,6.5,45,0.00,,,0.00,VWS V14.01,2013-01-23 02:54:00,
2013-01-22 21:59:00,10.8,-6.4,29.71,West,270,5.6,5.6,45,0.00,,,0.00,VWS V14.01,2013-01-23 02:59:00,
2013-01-22 22:04:00,10.6,-6.6,29.71,WSW,248,4.9,4.9,45,0.00,,,0.00,VWS V14.01,2013-01-23 03:04:00,
2013-01-22 22:10:00,10.6,-6.6,29.71,WSW,248,5.6,5.6,45,0.00,,,0.00,VWS V14.01,2013-01-23 03:10:00,
2013-01-22 22:15:00,10.6,-6.6,29.71,WSW,248,4.3,4.3,45,0.00,,,0.00,VWS V14.01,2013-01-23 03:15:00,
2013-01-22 22:20:00,10.6,-6.6,29.71,WSW,248,4.9,4.9,45,0.00,,,0.00,VWS V14.01,2013-01-23 03:20:00,
2013-01-22 22:25:00,10.4,-6.7,29.71,WSW,248,2.5,2.5,45,0.00,,,0.00,VWS V14.01,2013-01-23 03:25:00,
2013-01-22 22:30:00,10.4,-6.7,29.71,WNW,292,2.7,2.7,45,0.00,,,0.00,VWS V14.01,2013-01-23 03:30:00,
2013-01-22 22:35:00,10.2,-6.9,29.71,WSW,248,3.8,3.8,45,0.00,,,0.00,VWS V14.01,2013-01-23 03:35:00,
2013-01-22 22:40:00,10.2,-6.9,29.71,WSW,248,4.3,4.3,45,0.00,,,0.00,VWS V14.01,2013-01-23 03:40:00,
2013-01-22 22:45:00,10.2,-6.9,29.71,WSW,248,5.8,5.8,45,0.00,,,0.00,VWS V14.01,2013-01-23 03:45:00,
2013-01-22 22:50:00,10.0,-7.1,29.68,WSW,248,3.1,3.1,45,0.00,,,0.00,VWS V14.01,2013-01-23 03:50:00,
2013-01-22 22:55:00,10.2,-6.9,29.68,WSW,248,3.4,3.4,45,0.00,,,0.00,VWS V14.01,2013-01-23 03:55:00,
2013-01-22 23:00:00,10.2,-6.9,29.68,West,270,2.5,2.5,45,0.00,,,0.00,VWS V14.01,2013-01-23 04:00:00,
2013-01-22 23:05:00,10.2,-6.9,29.68,WSW,248,4.3,4.3,45,0.00,,,0.00,VWS V14.01,2013-01-23 04:05:00,
2013-01-22 23:10:00,10.2,-6.9,29.68,WSW,248,2.7,2.7,45,0.00,,,0.00,VWS V14.01,2013-01-23 04:10:00,
2013-01-22 23:15:00,10.2,-6.9,29.68,WNW,292,3.6,3.6,45,0.00,,,0.00,VWS V14.01,2013-01-23 04:15:00,
2013-01-22 23:20:00,10.2,-6.9,29.68,WSW,248,3.6,3.6,45,0.00,,,0.00,VWS V14.01,2013-01-23 04:20:00,
2013-01-22 23:25:00,10.2,-6.9,29.68,West,270,5.6,5.6,45,0.00,,,0.00,VWS V14.01,2013-01-23 04:25:00,
2013-01-22 23:31:00,10.2,-6.9,29.68,West,270,5.8,5.8,45,0.00,,,0.00,VWS V14.01,2013-01-23 04:31:00,
2013-01-22 23:36:00,10.2,-6.9,29.68,West,270,5.6,5.6,45,0.00,,,0.00,VWS V14.01,2013-01-23 04:36:00,
2013-01-22 23:41:00,10.0,-7.1,29.68,West,270,6.5,6.5,45,0.00,,,0.00,VWS V14.01,2013-01-23 04:41:00,
2013-01-22 23:46:00,10.0,-7.1,29.68,WSW,248,4.9,4.9,45,0.00,,,0.00,VWS V14.01,2013-01-23 04:46:00,
2013-01-22 23:51:00,10.0,-7.1,29.68,West,270,5.4,5.4,45,0.00,,,0.00,VWS V14.01,2013-01-23 04:51:00,
2013-01-22 23:56:00,10.0,-7.1,29.68,WSW,248,4.7,4.7,45,0.00,,,0.00,VWS V14.01,2013-01-23 04:56:00,